createdAt,value
2022-12-23T00:02:38.291Z,100054.16
2022-12-23T00:05:41.428Z,100061.84
2022-12-23T00:08:44.490Z,100086.72
2022-12-23T00:12:05.484Z,100063.34
2022-12-23T00:15:08.909Z,100056.38
2022-12-23T00:18:11.493Z,100053.34
2022-12-23T00:21:16.764Z,100073.06
2022-12-23T00:24:19.423Z,100080.03
2022-12-23T00:27:21.728Z,100060.63
2022-12-23T00:30:24.524Z,100075.19
2022-12-23T00:33:29.624Z,100087.53
2022-12-23T00:36:32.438Z,100085.28
2022-12-23T00:39:55.174Z,100083.06
2022-12-23T00:42:59.719Z,100081.63
2022-12-23T00:46:02.019Z,100072.13
2022-12-23T00:49:23.770Z,100073.75
2022-12-23T00:52:26.074Z,100061.34
2022-12-23T00:55:28.671Z,100042.72
2022-12-23T00:58:32.004Z,100040.09
2022-12-23T01:01:53.821Z,100041.22
2022-12-23T01:05:14.967Z,100075.78
2022-12-23T01:08:17.590Z,100056.78
2022-12-23T01:11:19.897Z,100065.66
2022-12-23T01:14:22.857Z,100042.22
2022-12-23T01:17:25.287Z,100033.53
2022-12-23T01:20:27.971Z,100062.72
2022-12-23T01:23:30.330Z,100062.22
2022-12-23T01:26:33.015Z,100055.03
2022-12-23T01:29:35.335Z,100033.03
2022-12-23T01:32:38.309Z,100046.81
2022-12-23T01:35:40.630Z,100009.66
2022-12-23T01:38:43.872Z,100051.47
2022-12-23T01:42:05.632Z,100020.37
2022-12-23T01:45:21.128Z,100012.69
2022-12-23T01:48:27.650Z,100036.91
2022-12-23T01:51:30.477Z,100035.28
2022-12-23T01:54:33.533Z,100032.56
2022-12-23T01:57:39.328Z,100036.72
2022-12-23T02:01:01.214Z,100026.63
2022-12-23T02:04:16.048Z,100021.75
2022-12-23T02:07:37.697Z,99990.72
2022-12-23T02:11:15.360Z,99998.12
2022-12-23T02:14:51.618Z,100004.59
2022-12-23T02:17:56.838Z,100019.16
2022-12-23T02:21:24.001Z,100011.56
2022-12-23T02:24:35.779Z,100005.09
2022-12-23T02:28:08.916Z,100009.53
2022-12-23T02:31:39.402Z,100015.59
2022-12-23T02:35:11.016Z,99989.88
2022-12-23T02:38:23.639Z,100000.81
2022-12-23T02:42:11.058Z,99984.63
2022-12-23T02:45:19.793Z,100003.81
2022-12-23T02:48:32.126Z,99983.22
2022-12-23T02:51:40.628Z,100009.09
2022-12-23T02:54:51.815Z,100000.63
2022-12-23T02:57:55.793Z,99986.06
2022-12-23T03:01:00.622Z,100004.03
2022-12-23T03:04:03.322Z,99986.88
2022-12-23T03:07:08.069Z,100013.87
2022-12-23T03:10:20.740Z,100013.94
2022-12-23T03:13:41.529Z,100019.41
2022-12-23T03:17:32.258Z,99992.25
2022-12-23T03:20:42.373Z,100021.25
2022-12-23T03:23:55.724Z,100014.56
2022-12-23T03:27:08.635Z,99979.03
2022-12-23T03:30:15.051Z,99982.84
2022-12-23T03:33:24.117Z,99995.19
2022-12-23T03:36:32.590Z,100002.66
2022-12-23T03:39:47.069Z,100000.03
2022-12-23T03:42:56.799Z,100000.03
2022-12-23T03:46:13.249Z,100008.69
2022-12-23T03:49:23.776Z,99973.13
2022-12-23T03:52:41.633Z,99974.03
2022-12-23T03:55:51.733Z,99993.63
2022-12-23T03:59:17.493Z,99969.91
2022-12-23T04:02:46.741Z,99999.00
2022-12-23T04:05:58.104Z,99994.13
2022-12-23T04:09:01.989Z,99996.16
2022-12-23T04:12:04.960Z,99964.13
2022-12-23T04:15:12.527Z,99966.25
2022-12-23T04:18:16.461Z,99983.44
2022-12-23T04:21:18.810Z,99954.75
2022-12-23T04:24:21.548Z,99962.09
2022-12-23T04:27:23.870Z,99946.56
2022-12-23T04:30:31.608Z,99974.56
2022-12-23T04:33:36.728Z,99947.06
2022-12-23T04:36:39.306Z,99969.91
2022-12-23T04:39:41.732Z,99973.81
2022-12-23T04:42:44.537Z,99979.88
2022-12-23T04:45:51.352Z,99986.31
2022-12-23T04:48:53.969Z,99989.81
2022-12-23T04:51:56.344Z,99968.31
2022-12-23T04:54:59.147Z,99981.75
2022-12-23T04:58:01.450Z,99969.41
2022-12-23T05:01:09.567Z,99975.53
2022-12-23T05:04:12.880Z,99993.84
2022-12-23T05:07:15.595Z,99984.88
2022-12-23T05:10:18.073Z,99982.94
2022-12-23T05:13:20.771Z,99980.75
2022-12-23T05:16:23.278Z,99983.56
2022-12-23T05:19:25.929Z,99997.25
2022-12-23T05:22:28.227Z,99995.03
2022-12-23T05:25:33.948Z,99991.88
2022-12-23T05:28:36.311Z,99997.31
2022-12-23T05:31:38.963Z,99999.28
2022-12-23T05:34:41.331Z,99966.78
2022-12-23T05:37:43.916Z,99963.47
2022-12-23T05:40:46.485Z,99967.53
2022-12-23T05:43:49.531Z,99954.34
2022-12-23T05:46:51.866Z,99989.34
2022-12-23T05:49:54.418Z,99989.75
2022-12-23T05:52:57.751Z,99975.84
2022-12-23T05:56:04.585Z,99979.44
2022-12-23T05:59:06.958Z,100009.16
2022-12-23T06:02:09.819Z,100017.03
2022-12-23T06:05:13.327Z,100023.47
2022-12-23T06:08:15.702Z,100022.44
2022-12-23T06:11:18.329Z,100016.56
2022-12-23T06:14:26.884Z,100014.84
2022-12-23T06:17:31.510Z,99983.44
2022-12-23T06:20:33.897Z,100007.72
2022-12-23T06:23:36.655Z,100010.47
2022-12-23T06:26:39.065Z,99996.13
2022-12-23T06:29:42.274Z,100009.56
2022-12-23T06:32:44.602Z,99951.25
2022-12-23T06:35:47.505Z,100009.22
2022-12-23T06:38:49.850Z,99967.06
2022-12-23T06:41:52.691Z,99975.91
2022-12-23T06:44:55.076Z,100001.22
2022-12-23T06:47:57.681Z,100014.34
2022-12-23T06:50:59.979Z,100008.66
2022-12-23T06:54:02.692Z,100002.56
2022-12-23T06:57:05.012Z,100000.41
2022-12-23T07:00:09.029Z,99997.97
2022-12-23T07:03:11.566Z,100022.16
2022-12-23T07:06:14.981Z,100012.53
2022-12-23T07:09:17.443Z,100007.53
2022-12-23T07:12:20.147Z,100047.03
2022-12-23T07:15:22.441Z,100066.16
2022-12-23T07:18:25.556Z,100063.87
2022-12-23T07:21:29.807Z,100036.72
2022-12-23T07:24:32.770Z,100070.28
2022-12-23T07:27:35.030Z,100067.84
2022-12-23T07:30:37.653Z,100038.41
2022-12-23T07:33:40.029Z,100052.97
2022-12-23T07:36:42.653Z,100021.31
2022-12-23T07:39:44.989Z,100030.91
2022-12-23T07:42:54.419Z,100017.28
2022-12-23T07:46:00.340Z,100008.28
2022-12-23T07:49:03.753Z,100014.22
2022-12-23T07:52:06.158Z,100009.19
2022-12-23T07:55:09.143Z,100015.69
2022-12-23T07:58:11.451Z,100031.72
2022-12-23T08:01:14.156Z,100034.34
2022-12-23T08:04:16.992Z,100008.69
2022-12-23T08:07:19.474Z,100029.72
2022-12-23T08:10:22.595Z,100019.50
2022-12-23T08:13:25.323Z,100026.41
2022-12-23T08:16:28.032Z,100027.72
2022-12-23T08:19:30.363Z,99996.31
2022-12-23T08:22:33.064Z,100017.78
2022-12-23T08:25:35.440Z,100009.75
2022-12-23T08:28:39.830Z,100029.91
2022-12-23T08:31:42.217Z,99995.00
2022-12-23T08:34:44.811Z,100005.94
2022-12-23T08:37:47.141Z,99991.38
2022-12-23T08:40:49.773Z,99996.81
2022-12-23T08:43:53.024Z,100009.41
2022-12-23T08:46:56.158Z,100018.06
2022-12-23T08:49:59.260Z,100014.13
2022-12-23T08:53:01.898Z,100007.97
2022-12-23T08:56:06.988Z,100001.94
2022-12-23T08:59:18.791Z,99953.75
2022-12-23T09:02:23.328Z,99945.50
2022-12-23T09:05:26.104Z,99948.84
2022-12-23T09:08:28.433Z,99969.44
2022-12-23T09:11:31.805Z,99957.31
2022-12-23T09:14:34.168Z,99966.41
2022-12-23T09:17:36.820Z,99959.56
2022-12-23T09:20:39.935Z,99990.22
2022-12-23T09:23:43.138Z,100002.87
2022-12-23T09:26:46.085Z,99974.72
2022-12-23T09:29:48.746Z,100003.41
2022-12-23T09:32:51.436Z,99976.19
2022-12-23T09:35:59.917Z,100001.41
2022-12-23T09:39:02.469Z,99974.25
2022-12-23T09:42:43.693Z,99980.72
2022-12-23T09:46:04.760Z,99979.22
2022-12-23T09:49:16.687Z,99973.66
2022-12-23T09:52:40.624Z,99939.63
2022-12-23T09:55:58.252Z,99972.47
2022-12-23T09:59:08.489Z,99961.34
2022-12-23T10:02:32.639Z,99984.94
2022-12-23T10:06:14.350Z,99972.13
2022-12-23T10:09:18.728Z,99965.47
2022-12-23T10:12:39.659Z,99910.47
2022-12-23T10:15:47.942Z,99918.34
2022-12-23T10:19:01.083Z,99911.59
2022-12-23T10:22:11.966Z,99888.84
2022-12-23T10:25:37.482Z,99906.84
2022-12-23T10:28:39.967Z,99929.38
2022-12-23T10:32:17.598Z,99922.84
2022-12-23T10:35:37.269Z,99921.22
2022-12-23T10:39:05.126Z,99914.25
2022-12-23T10:42:28.238Z,99907.09
2022-12-23T10:45:54.441Z,99898.50
2022-12-23T10:49:22.295Z,99863.06
2022-12-23T10:52:29.928Z,99894.69
2022-12-23T10:55:35.819Z,99893.97
2022-12-23T10:58:44.296Z,99895.00
2022-12-23T11:01:53.084Z,99891.84
2022-12-23T11:04:56.417Z,99893.38
2022-12-23T11:07:59.134Z,99900.53
2022-12-23T11:11:02.157Z,99900.25
2022-12-23T11:14:04.773Z,99876.81
2022-12-23T11:17:29.157Z,99894.59
2022-12-23T11:20:33.000Z,99899.44
2022-12-23T11:23:36.719Z,99904.38
2022-12-23T11:26:39.577Z,99902.06
2022-12-23T11:29:49.675Z,99886.63
2022-12-23T11:32:52.499Z,99864.13
2022-12-23T11:36:29.032Z,99853.94
2022-12-23T11:39:34.644Z,99896.44
2022-12-23T11:42:41.646Z,99895.81
2022-12-23T11:45:44.054Z,99905.31
2022-12-23T11:48:54.345Z,99893.19
2022-12-23T11:52:06.388Z,99873.81
2022-12-23T11:55:24.997Z,99918.34
2022-12-23T11:58:30.001Z,99873.16
2022-12-23T12:01:33.173Z,99905.69
2022-12-23T12:04:36.503Z,99880.22
2022-12-23T12:07:43.259Z,99901.25
2022-12-23T12:10:46.183Z,99912.78
2022-12-23T12:13:50.589Z,99883.50
2022-12-23T12:17:14.267Z,99917.91
2022-12-23T12:20:29.225Z,99903.91
2022-12-23T12:23:40.427Z,99913.78
2022-12-23T12:26:44.580Z,99907.81
2022-12-23T12:30:08.189Z,99910.75
2022-12-23T12:33:28.106Z,99885.91
2022-12-23T12:36:36.646Z,99889.66
2022-12-23T12:40:01.509Z,99892.66
2022-12-23T12:43:22.578Z,99896.41
2022-12-23T12:46:25.009Z,99908.28
2022-12-23T12:49:37.253Z,99906.88
2022-12-23T12:52:42.252Z,99900.31
2022-12-23T12:56:04.060Z,99898.00
2022-12-23T12:59:06.413Z,99905.88
2022-12-23T13:02:46.631Z,99898.00
2022-12-23T13:05:54.886Z,99903.03
2022-12-23T13:09:23.697Z,99908.69
2022-12-23T13:13:13.909Z,99921.03
2022-12-23T13:16:35.077Z,99922.81
2022-12-23T13:20:32.767Z,99916.28
2022-12-23T13:23:46.117Z,99921.59
2022-12-23T13:27:39.530Z,99915.03
2022-12-23T13:31:08.532Z,99918.06
2022-12-23T13:34:36.065Z,99913.44
2022-12-23T13:37:49.168Z,99913.44
2022-12-23T13:41:12.859Z,99911.69
2022-12-23T13:44:18.905Z,99911.69
2022-12-23T13:47:49.114Z,99884.25
2022-12-23T13:51:00.975Z,99914.72
2022-12-23T13:54:15.675Z,99921.12
2022-12-23T13:57:58.322Z,99917.13
2022-12-23T14:01:09.981Z,99889.59
2022-12-23T14:04:57.193Z,99912.69
2022-12-23T14:08:20.800Z,99908.22
2022-12-23T14:11:28.491Z,99888.38
2022-12-23T14:15:25.043Z,99923.97
2022-12-23T14:18:48.354Z,99914.69
2022-12-23T14:22:21.770Z,99922.06
2022-12-23T14:25:41.243Z,99927.72
2022-12-23T14:28:56.453Z,99923.38
2022-12-23T14:31:59.414Z,99931.06
2022-12-23T14:35:20.337Z,99896.13
2022-12-23T14:38:29.221Z,99927.59
2022-12-23T14:41:38.961Z,99907.25
2022-12-23T14:44:43.715Z,99933.28
2022-12-23T14:47:46.579Z,99923.50
2022-12-23T14:51:00.125Z,99937.09
2022-12-23T14:54:02.361Z,99934.06
2022-12-23T14:57:18.047Z,99934.38
2022-12-23T15:00:20.405Z,99929.41
2022-12-23T15:03:23.670Z,99889.44
2022-12-23T15:06:35.311Z,99939.91
2022-12-23T15:09:48.513Z,99913.47
2022-12-23T15:12:58.032Z,99949.06
2022-12-23T15:16:01.949Z,99882.59
2022-12-23T15:19:24.380Z,99934.06
2022-12-23T15:22:32.620Z,99971.44
2022-12-23T15:25:40.725Z,99960.12
2022-12-23T15:28:44.160Z,99965.38
2022-12-23T15:31:50.619Z,99960.09
2022-12-23T15:35:00.030Z,99918.69
2022-12-23T15:38:03.281Z,99922.50
2022-12-23T15:41:14.928Z,99963.75
2022-12-23T15:44:25.897Z,99938.41
2022-12-23T15:47:31.277Z,99938.41
2022-12-23T15:50:41.768Z,99945.72
2022-12-23T15:53:47.253Z,99925.87
2022-12-23T15:56:53.467Z,99947.00
2022-12-23T15:59:58.558Z,99953.88
2022-12-23T16:03:03.330Z,99928.50
2022-12-23T16:06:17.058Z,99940.28
2022-12-23T16:09:19.337Z,99954.44
2022-12-23T16:12:25.919Z,99947.34
2022-12-23T16:15:31.100Z,99924.75
2022-12-23T16:18:46.891Z,99920.94
2022-12-23T16:21:49.960Z,99931.84
2022-12-23T16:25:24.831Z,99922.50
2022-12-23T16:28:38.568Z,99957.66
2022-12-23T16:31:48.236Z,99948.56
2022-12-23T16:34:55.178Z,99914.22
2022-12-23T16:38:11.283Z,99928.88
2022-12-23T16:41:14.394Z,99930.97
2022-12-23T16:44:17.238Z,99934.19
2022-12-23T16:47:20.134Z,99925.94
2022-12-23T16:50:23.198Z,99929.56
2022-12-23T16:53:25.740Z,99926.47
2022-12-23T16:56:32.045Z,99944.25
2022-12-23T16:59:34.386Z,99938.06
2022-12-23T17:02:37.147Z,99912.13
2022-12-23T17:05:39.574Z,99941.28
2022-12-23T17:08:42.981Z,99916.44
2022-12-23T17:11:53.202Z,99933.63
2022-12-23T17:14:55.799Z,99926.13
2022-12-23T17:17:58.374Z,99928.75
2022-12-23T17:21:04.186Z,99944.12
2022-12-23T17:24:22.467Z,99936.62
2022-12-23T17:27:25.356Z,99932.37
2022-12-23T17:30:33.526Z,99935.13
2022-12-23T17:33:36.406Z,99942.69
2022-12-23T17:36:41.912Z,99896.59
2022-12-23T17:39:47.586Z,99913.69
2022-12-23T17:42:53.559Z,99920.78
2022-12-23T17:45:56.308Z,99916.38
2022-12-23T17:48:59.308Z,99904.50
2022-12-23T17:52:02.175Z,99924.81
2022-12-23T17:55:09.881Z,99923.91
2022-12-23T17:58:13.988Z,99930.78
2022-12-23T18:01:26.403Z,99918.59
2022-12-23T18:04:29.063Z,99933.03
2022-12-23T18:07:31.363Z,99927.97
2022-12-23T18:10:39.137Z,99897.09
2022-12-23T18:13:41.494Z,99925.16
2022-12-23T18:16:44.232Z,99918.69
2022-12-23T18:19:46.641Z,99919.06
2022-12-23T18:22:53.120Z,99898.69
2022-12-23T18:25:56.740Z,99922.72
2022-12-23T18:28:59.336Z,99922.44
2022-12-23T18:32:01.786Z,99910.37
2022-12-23T18:35:15.927Z,99894.84
2022-12-23T18:38:18.475Z,99911.00
2022-12-23T18:41:21.856Z,99913.59
2022-12-23T18:44:24.463Z,99912.91
2022-12-23T18:47:27.083Z,99910.63
2022-12-23T18:50:30.871Z,99928.38
2022-12-23T18:53:33.476Z,99906.38
2022-12-23T18:56:35.717Z,99937.88
2022-12-23T18:59:39.750Z,99919.00
2022-12-23T19:02:43.205Z,99925.16
2022-12-23T19:05:47.109Z,99911.59
2022-12-23T19:08:49.438Z,99935.34
2022-12-23T19:11:53.922Z,99931.09
2022-12-23T19:14:56.356Z,99935.06
2022-12-23T19:17:59.033Z,99927.50
2022-12-23T19:21:04.624Z,99930.00
2022-12-23T19:24:07.289Z,99950.22
2022-12-23T19:27:09.788Z,99940.72
2022-12-23T19:30:15.909Z,99933.56
2022-12-23T19:33:18.307Z,99931.03
2022-12-23T19:36:25.488Z,99960.19
2022-12-23T19:39:31.315Z,99938.13
2022-12-23T19:42:36.658Z,99963.13
2022-12-23T19:45:39.095Z,99970.13
2022-12-23T19:48:42.122Z,99951.31
2022-12-23T19:51:44.469Z,99936.28
2022-12-23T19:54:47.351Z,99967.50
2022-12-23T19:57:49.653Z,99901.00
2022-12-23T20:00:52.353Z,99966.31
2022-12-23T20:03:56.339Z,99967.44
2022-12-23T20:06:58.681Z,99976.72
2022-12-23T20:10:01.291Z,99984.44
2022-12-23T20:13:03.580Z,99974.53
2022-12-23T20:16:07.502Z,99976.53
2022-12-23T20:19:10.473Z,99973.09
2022-12-23T20:22:13.227Z,99974.12
2022-12-23T20:25:15.677Z,99944.94
2022-12-23T20:28:18.559Z,99949.75
2022-12-23T20:31:24.036Z,99959.16
2022-12-23T20:34:26.684Z,99959.34
2022-12-23T20:37:29.000Z,99935.94
2022-12-23T20:40:31.717Z,99942.97
2022-12-23T20:43:34.811Z,99946.84
2022-12-23T20:46:37.506Z,99924.91
2022-12-23T20:49:39.962Z,99912.81
2022-12-23T20:52:42.543Z,99913.69
2022-12-23T20:55:45.071Z,99929.03
2022-12-23T20:59:01.565Z,99933.06
2022-12-23T21:02:04.035Z,99926.19
2022-12-23T21:05:07.196Z,99900.56
2022-12-23T21:08:09.612Z,99903.16
2022-12-23T21:11:12.757Z,99936.16
2022-12-23T21:14:16.031Z,99943.75
2022-12-23T21:17:18.730Z,99904.16
2022-12-23T21:20:21.086Z,99925.56
2022-12-23T21:23:23.710Z,99938.16
2022-12-23T21:26:28.349Z,99945.25
2022-12-23T21:29:30.998Z,99926.94
2022-12-23T21:32:33.388Z,99897.25
2022-12-23T21:35:36.066Z,99919.69
2022-12-23T21:38:41.917Z,99893.22
2022-12-23T21:41:45.869Z,99906.34
2022-12-23T21:44:48.311Z,99903.59
2022-12-23T21:47:50.992Z,99898.47
2022-12-23T21:50:53.789Z,99892.06
2022-12-23T21:53:58.400Z,99885.56
2022-12-23T21:57:00.762Z,99895.41
2022-12-23T22:00:04.025Z,99858.28
2022-12-23T22:03:06.754Z,99878.63
2022-12-23T22:06:30.084Z,99884.91
2022-12-23T22:09:32.744Z,99884.09
2022-12-23T22:12:35.386Z,99852.62
2022-12-23T22:15:43.805Z,99824.78
2022-12-23T22:18:47.480Z,99820.69
2022-12-23T22:21:49.805Z,99818.44
2022-12-23T22:24:53.454Z,99803.31
2022-12-23T22:27:55.777Z,99785.34
2022-12-23T22:31:06.851Z,99789.78
2022-12-23T22:34:13.067Z,99811.06
2022-12-23T22:37:16.428Z,99814.47
2022-12-23T22:40:18.796Z,99797.38
2022-12-23T22:43:24.344Z,99816.19
2022-12-23T22:46:27.719Z,99795.87
2022-12-23T22:49:30.540Z,99784.53
2022-12-23T22:52:32.883Z,99780.19
2022-12-23T22:55:35.505Z,99803.56
2022-12-23T22:58:37.881Z,99777.44
2022-12-23T23:01:40.521Z,99802.44
2022-12-23T23:04:43.004Z,99797.78
2022-12-23T23:07:45.703Z,99792.03
2022-12-23T23:10:48.055Z,99794.75
2022-12-23T23:13:50.894Z,99798.59
2022-12-23T23:16:53.369Z,99793.94
2022-12-23T23:19:56.048Z,99774.91
2022-12-23T23:22:58.343Z,99801.81
2022-12-23T23:26:01.136Z,99797.97
2022-12-23T23:29:03.512Z,99788.28
2022-12-23T23:32:07.597Z,99801.56
2022-12-23T23:35:11.075Z,99797.97
2022-12-23T23:38:14.084Z,99823.31
2022-12-23T23:41:22.488Z,99819.63
2022-12-23T23:44:26.077Z,99796.72
2022-12-23T23:47:28.391Z,99790.06
2022-12-23T23:50:30.959Z,99767.81
2022-12-23T23:53:33.426Z,99786.88
2022-12-23T23:56:38.559Z,99790.88
2022-12-23T23:59:41.732Z,99759.47
